^^
Grace C. Lehan Memorial Weather Station Historical Data
Daily Summary for March 17, 2021 Units:  Metric    English   Both
Daily Weekly Monthly Yearly
  High: Low: Average:
Temperature: 26.4 °C 10 °C 18.6 °C
Dew Point: 12.3 °C 7.2 °C 9.8 °C
Humidity: 89% 30.1% 60%
Wind Speed: 3.2km/h 0km/h 0.3km/h
Wind Gust: 16.1km/h - -
Wind- - SSW
Pressure: 1024.9 hPa 1022.2 hPa -
Precipitation: 0 mm    
 
 
Tabular Data for March 17, 2021
Time Temperature Dew Point Pressure Wind Wind Speed Wind Gust Humidity Rainfall Rate (Hourly) solar
00:00 14.8 °C 9 °C 1022.6 hPa Calm   1.6 km/h 68% 0 mm 0 W/m2
00:09 14.8 °C 8.9 °C 1022.6 hPa Calm     68% 0 mm 0 W/m2
00:14 14.8 °C 8.9 °C 1022.6 hPa Calm     68.1% 0 mm 0 W/m2
00:19 14.7 °C 9.1 °C 1022.6 hPa Calm     69% 0 mm 0 W/m2
00:24 14.7 °C 9.1 °C 1022.6 hPa Calm     69% 0 mm 0 W/m2
00:29 14.6 °C 9 °C 1022.6 hPa Calm     69% 0 mm 0 W/m2
00:34 14.6 °C 8.9 °C 1022.6 hPa Calm     69% 0 mm 0 W/m2
00:39 14.4 °C 8.8 °C 1022.6 hPa Calm     69% 0 mm 0 W/m2
00:44 14.4 °C 8.9 °C 1022.6 hPa Calm     69.5% 0 mm 0 W/m2
00:49 14.3 °C 8.9 °C 1022.6 hPa Calm     70% 0 mm 0 W/m2
00:54 14.2 °C 8.9 °C 1022.6 hPa Calm     70.4% 0 mm 0 W/m2
00:59 14.2 °C 9 °C 1022.6 hPa Calm     71% 0 mm 0 W/m2
01:04 14.1 °C 9 °C 1022.6 hPa Calm     71.6% 0 mm 0 W/m2
01:09 14.1 °C 9.1 °C 1022.6 hPa Calm     72.1% 0 mm 0 W/m2
01:14 13.9 °C 9.2 °C 1022.6 hPa Calm     73% 0 mm 0 W/m2
01:19 13.8 °C 9.1 °C 1022.6 hPa Calm     73.1% 0 mm 0 W/m2
01:24 13.8 °C 9.2 °C 1022.6 hPa Calm     74% 0 mm 0 W/m2
01:29 13.7 °C 9.2 °C 1022.6 hPa Calm     74% 0 mm 0 W/m2
01:34 13.7 °C 9.3 °C 1022.6 hPa Calm     74.8% 0 mm 0 W/m2
01:39 13.6 °C 9.3 °C 1022.6 hPa Calm     75% 0 mm 0 W/m2
01:44 13.6 °C 9.3 °C 1022.6 hPa Calm     75.7% 0 mm 0 W/m2
01:49 13.4 °C 9.3 °C 1022.6 hPa Calm     76% 0 mm 0 W/m2
01:54 13.4 °C 9.2 °C 1022.6 hPa Calm     76% 0 mm 0 W/m2
01:59 13.3 °C 9.3 °C 1022.6 hPa Calm     76.4% 0 mm 0 W/m2
02:04 13.2 °C 9.3 °C 1022.6 hPa Calm     77% 0 mm 0 W/m2
02:09 13.2 °C 9.2 °C 1022.6 hPa Calm     77% 0 mm 0 W/m2
02:14 13.1 °C 9.2 °C 1022.6 hPa Calm     77% 0 mm 0 W/m2
02:19 13 °C 9.1 °C 1022.9 hPa Calm     77% 0 mm 0 W/m2
02:24 12.9 °C 9.2 °C 1022.6 hPa Calm     77.8% 0 mm 0 W/m2
02:29 12.8 °C 9.1 °C 1022.6 hPa Calm     78% 0 mm 0 W/m2
02:34 12.7 °C 9.1 °C 1022.6 hPa Calm     78.9% 0 mm 0 W/m2
02:39 12.6 °C 9.1 °C 1022.6 hPa Calm     79% 0 mm 0 W/m2
02:44 12.5 °C 8.9 °C 1022.6 hPa Calm     79% 0 mm 0 W/m2
02:49 12.4 °C 8.8 °C 1022.6 hPa Calm     78.7% 0 mm 0 W/m2
02:54 12.4 °C 8.8 °C 1022.6 hPa West 0.2 km/h 1.6 km/h 78.6% 0 mm 0 W/m2
02:59 12.3 °C 8.6 °C 1022.6 hPa West 0.2 km/h 1.6 km/h 78% 0 mm 0 W/m2
03:04 12.3 °C 8.6 °C 1022.6 hPa West 0.2 km/h 1.6 km/h 78% 0 mm 0 W/m2
03:09 12.3 °C 8.6 °C 1022.6 hPa West 0.2 km/h 1.6 km/h 78% 0 mm 0 W/m2
03:14 12.3 °C 8.6 °C 1022.6 hPa Calm   1.6 km/h 78% 0 mm 0 W/m2
03:19 12.4 °C 8.5 °C 1022.6 hPa Calm   1.6 km/h 77.1% 0 mm 0 W/m2
03:24 12.4 °C 8.5 °C 1022.6 hPa Calm   1.6 km/h 77% 0 mm 0 W/m2
03:29 12.4 °C 8.5 °C 1022.6 hPa Calm   1.6 km/h 77% 0 mm 0 W/m2
03:34 12.4 °C 8.6 °C 1022.6 hPa Calm   1.6 km/h 77.6% 0 mm 0 W/m2
03:39 12.3 °C 8.6 °C 1022.6 hPa Calm     78% 0 mm 0 W/m2
03:44 12.3 °C 8.6 °C 1022.6 hPa Calm     78% 0 mm 0 W/m2
03:49 12.2 °C 8.6 °C 1022.6 hPa Calm     78.7% 0 mm 0 W/m2
03:54 12.1 °C 8.6 °C 1022.6 hPa Calm     79% 0 mm 0 W/m2
03:59 12 °C 8.5 °C 1022.6 hPa Calm     79% 0 mm 0 W/m2
04:00 11.9 °C 8.4 °C 1022.6 hPa Calm     79% 0 mm 0 W/m2
04:09 11.8 °C 8.5 °C 1022.6 hPa Calm     80% 0 mm 0 W/m2
04:14 11.7 °C 8.4 °C 1022.9 hPa Calm     80% 0 mm 0 W/m2
04:19 11.6 °C 8.4 °C 1022.9 hPa Calm     80.9% 0 mm 0 W/m2
04:24 11.4 °C 8.3 °C 1022.9 hPa Calm     81% 0 mm 0 W/m2
04:29 11.3 °C 8.2 °C 1022.9 hPa Calm     81% 0 mm 0 W/m2
04:34 11.3 °C 8.1 °C 1022.9 hPa Calm     81% 0 mm 0 W/m2
04:39 11.2 °C 8.1 °C 1022.9 hPa Calm     81.1% 0 mm 0 W/m2
04:44 11.2 °C 8.2 °C 1022.9 hPa Calm     82% 0 mm 0 W/m2
04:49 11.1 °C 8.2 °C 1022.9 hPa Calm     82% 0 mm 0 W/m2
04:54 11.1 °C 8.2 °C 1023.2 hPa Calm     82% 0 mm 0 W/m2
04:59 11.1 °C 8.1 °C 1023.2 hPa Calm     82% 0 mm 0 W/m2
05:04 11 °C 8 °C 1023.2 hPa Calm     82% 0 mm 0 W/m2
05:09 10.9 °C 8.1 °C 1023.2 hPa Calm     82.9% 0 mm 0 W/m2
05:14 10.8 °C 8.1 °C 1023.2 hPa Calm     83% 0 mm 0 W/m2
05:19 10.7 °C 8 °C 1023.2 hPa Calm     83% 0 mm 0 W/m2
05:24 10.7 °C 8 °C 1023.2 hPa Calm     83.6% 0 mm 0 W/m2
05:29 10.6 °C 8 °C 1023.2 hPa Calm     84% 0 mm 0 W/m2
05:34 10.5 °C 7.9 °C 1023.2 hPa Calm     84% 0 mm 0 W/m2
05:39 10.4 °C 7.8 °C 1023.2 hPa Calm     84.2% 0 mm 7 W/m2
05:44 10.3 °C 7.9 °C 1023.2 hPa Calm     85% 0 mm 9 W/m2
05:49 10.3 °C 7.9 °C 1023.6 hPa Calm     85% 0 mm 12 W/m2
05:54 10.2 °C 7.9 °C 1023.6 hPa Calm     85.7% 0 mm 16 W/m2
05:59 10.1 °C 7.8 °C 1023.6 hPa Calm     86% 0 mm 19 W/m2
06:04 10.1 °C 7.8 °C 1023.6 hPa Calm     86% 0 mm 21 W/m2
06:09 10 °C 7.9 °C 1023.6 hPa Calm     86.8% 0 mm 25 W/m2
06:14 10 °C 7.9 °C 1023.6 hPa Calm     87% 0 mm 32 W/m2
06:19 10.1 °C 8 °C 1023.9 hPa Calm     87% 0 mm 37 W/m2
06:24 10.1 °C 8.2 °C 1023.9 hPa Calm     87.8% 0 mm 44 W/m2
06:29 10.2 °C 8.3 °C 1023.9 hPa Calm     88% 0 mm 56 W/m2
06:34 10.4 °C 8.6 °C 1023.9 hPa Calm     88.1% 0 mm 69 W/m2
06:39 10.7 °C 9 °C 1023.9 hPa Calm     89% 0 mm 76 W/m2
06:44 11.1 °C 9.3 °C 1023.9 hPa Calm     88.8% 0 mm 79 W/m2
06:49 11.6 °C 9.6 °C 1023.9 hPa Calm     87.7% 0 mm 118 W/m2
06:54 12 °C 9.8 °C 1023.9 hPa Calm     86.6% 0 mm 206 W/m2
06:59 12.5 °C 10.2 °C 1024.3 hPa Calm     85.8% 0 mm 209 W/m2
07:04 13.1 °C 10.3 °C 1024.3 hPa Calm     83.3% 0 mm 211 W/m2
07:09 13.6 °C 10.4 °C 1024.3 hPa WNW 0.8 km/h 3.2 km/h 81.4% 0 mm 253 W/m2
07:14 14.1 °C 10.6 °C 1024.3 hPa Calm   3.2 km/h 79.6% 0 mm 278 W/m2
07:19 14.3 °C 10.4 °C 1024.3 hPa WNW 0.2 km/h 3.2 km/h 77.5% 0 mm 295 W/m2
07:24 14.7 °C 10.7 °C 1024.3 hPa Calm   3.2 km/h 76.7% 0 mm 313 W/m2
07:29 14.9 °C 10.6 °C 1024.6 hPa Calm   3.2 km/h 75.5% 0 mm 330 W/m2
07:34 15.2 °C 10.8 °C 1024.6 hPa Calm   3.2 km/h 75% 0 mm 348 W/m2
07:39 15.4 °C 10.7 °C 1024.6 hPa Calm     73.5% 0 mm 364 W/m2
07:44 15.7 °C 10.9 °C 1024.6 hPa Calm     73.1% 0 mm 381 W/m2
07:49 15.9 °C 10.7 °C 1024.6 hPa Calm     70.8% 0 mm 399 W/m2
07:54 16.3 °C 10.9 °C 1024.6 hPa Calm     70.4% 0 mm 417 W/m2
07:59 16.4 °C 10.5 °C 1024.6 hPa Calm     67.8% 0 mm 432 W/m2
08:00 16.6 °C 10.7 °C 1024.6 hPa Calm     68% 0 mm 432 W/m2
08:09 17.1 °C 10.7 °C 1024.6 hPa Calm     66.1% 0 mm 468 W/m2
08:14 17.3 °C 10.5 °C 1024.6 hPa Calm     64.3% 0 mm 489 W/m2
08:19 17.6 °C 10.9 °C 1024.9 hPa Calm     64.9% 0 mm 503 W/m2
08:24 17.9 °C 11.2 °C 1024.9 hPa Calm     65.1% 0 mm 519 W/m2
08:29 18.1 °C 10.9 °C 1024.6 hPa Calm     63.2% 0 mm 536 W/m2
08:34 18.3 °C 11.7 °C 1024.9 hPa Calm     65.2% 0 mm 554 W/m2
08:39 18.7 °C 11.7 °C 1024.9 hPa Calm     63.7% 0 mm 571 W/m2
08:44 18.9 °C 11.3 °C 1024.6 hPa Calm   1.6 km/h 61.4% 0 mm 585 W/m2
08:49 19.4 °C 11.9 °C 1024.6 hPa Calm   1.6 km/h 61.9% 0 mm 598 W/m2
08:54 19.8 °C 11.4 °C 1024.6 hPa Calm   1.6 km/h 58.4% 0 mm 610 W/m2
08:59 20.2 °C 11.6 °C 1024.6 hPa WNW 0.3 km/h 3.2 km/h 57.7% 0 mm 624 W/m2
09:04 20.6 °C 11.8 °C 1024.6 hPa Calm   3.2 km/h 57.2% 0 mm 636 W/m2
09:09 20.9 °C 11.7 °C 1024.6 hPa WNW 0.2 km/h 3.2 km/h 55.7% 0 mm 652 W/m2
09:14 21 °C 11.7 °C 1024.6 hPa Calm   3.2 km/h 55.4% 0 mm 666 W/m2
09:19 21.1 °C 11.7 °C 1024.9 hPa WNW 0.3 km/h 3.2 km/h 54.8% 0 mm 684 W/m2
09:24 21.2 °C 11.1 °C 1024.6 hPa Calm   3.2 km/h 52.4% 0 mm 696 W/m2
09:29 21.3 °C 11.3 °C 1024.6 hPa NNW 1.1 km/h 4.8 km/h 52.9% 0 mm 705 W/m2
09:34 21.7 °C 11.5 °C 1024.6 hPa Calm   4.8 km/h 52.4% 0 mm 719 W/m2
09:39 22 °C 11.6 °C 1024.6 hPa NE 0.2 km/h 3.2 km/h 51.7% 0 mm 733 W/m2
09:44 22.2 °C 11.8 °C 1024.6 hPa NE 0.2 km/h 3.2 km/h 51.8% 0 mm 749 W/m2
09:49 22.6 °C 12.1 °C 1024.6 hPa NNE 0.6 km/h 6.4 km/h 51.4% 0 mm 763 W/m2
09:54 22.9 °C 11.9 °C 1024.6 hPa Calm   6.4 km/h 49.9% 0 mm 775 W/m2
09:59 23.2 °C 11.9 °C 1024.6 hPa Calm   6.4 km/h 49.3% 0 mm 786 W/m2
10:04 23.4 °C 11.3 °C 1024.6 hPa Calm   6.4 km/h 46.8% 0 mm 796 W/m2
10:09 23.4 °C 11.2 °C 1024.6 hPa Calm   1.6 km/h 45.9% 0 mm 809 W/m2
10:14 23.7 °C 11.6 °C 1024.6 hPa NNE 0.5 km/h 3.2 km/h 46.6% 0 mm 816 W/m2
10:19 23.8 °C 11.2 °C 1024.6 hPa NE 1.1 km/h 6.4 km/h 45.1% 0 mm 828 W/m2
10:24 24.1 °C 11.2 °C 1024.6 hPa ENE 2.4 km/h 6.4 km/h 44.4% 0 mm 840 W/m2
10:29 24.4 °C 10.5 °C 1024.6 hPa ENE 0.2 km/h 6.4 km/h 41.4% 0 mm 846 W/m2
10:34 24.3 °C 11.3 °C 1024.6 hPa NE 0.5 km/h 6.4 km/h 43.9% 0 mm 853 W/m2
10:39 24.4 °C 10.9 °C 1024.6 hPa Calm   4.8 km/h 42.8% 0 mm 863 W/m2
10:44 24.6 °C 11 °C 1024.6 hPa Calm   4.8 km/h 42.5% 0 mm 870 W/m2
10:49 24.7 °C 11.1 °C 1024.6 hPa Calm   4.8 km/h 42.5% 0 mm 879 W/m2
10:54 24.9 °C 11.3 °C 1024.6 hPa NE 1.3 km/h 4.8 km/h 42.6% 0 mm 886 W/m2
10:59 25.2 °C 10.7 °C 1024.6 hPa Calm   4.8 km/h 40.2% 0 mm 896 W/m2
11:04 25.3 °C 10.4 °C 1024.3 hPa Calm   4.8 km/h 39% 0 mm 902 W/m2
11:09 25.3 °C 10.4 °C 1024.3 hPa NE 0.2 km/h 3.2 km/h 39% 0 mm 909 W/m2
11:14 25.4 °C 9.9 °C 1024.3 hPa NE 0.3 km/h 4.8 km/h 37.8% 0 mm 928 W/m2
11:19 25.3 °C 9.9 °C 1024.3 hPa ENE 1.1 km/h 8 km/h 38% 0 mm 935 W/m2
11:24 25.3 °C 9.1 °C 1024.3 hPa Calm   8 km/h 35.7% 0 mm 940 W/m2
11:29 25.2 °C 9.2 °C 1024.3 hPa Calm   8 km/h 36.5% 0 mm 944 W/m2
11:34 25.1 °C 9.3 °C 1024.3 hPa Calm   8 km/h 37% 0 mm 949 W/m2
11:39 24.9 °C 9.4 °C 1023.9 hPa NE 0.5 km/h 6.4 km/h 37.3% 0 mm 951 W/m2
11:44 25.3 °C 10.1 °C 1023.9 hPa NE 0.8 km/h 6.4 km/h 38.6% 0 mm 954 W/m2
11:49 25.6 °C 9.3 °C 1023.9 hPa Calm   6.4 km/h 35.7% 0 mm 963 W/m2
11:54 25.7 °C 9.9 °C 1023.9 hPa NE 0.6 km/h 6.4 km/h 37% 0 mm 965 W/m2
11:59 25.8 °C 10.2 °C 1023.9 hPa NE 0.3 km/h 6.4 km/h 37.4% 0 mm 967 W/m2
12:00 25.9 °C 9.7 °C 1023.9 hPa Calm   6.4 km/h 36% 0 mm 967 W/m2
12:09 25.8 °C 10.2 °C 1023.9 hPa ENE 2.4 km/h 9.7 km/h 37.3% 0 mm 974 W/m2
12:14 25.9 °C 9.5 °C 1023.9 hPa ENE 1 km/h 9.7 km/h 35.4% 0 mm 976 W/m2
12:19 25.9 °C 9.1 °C 1023.6 hPa ENE 0.3 km/h 9.7 km/h 34.6% 0 mm 979 W/m2
12:24 25.8 °C 9.3 °C 1023.6 hPa ENE 0.5 km/h 9.7 km/h 35.4% 0 mm 979 W/m2
12:29 25.6 °C 8.9 °C 1023.6 hPa ENE 2.4 km/h 9.7 km/h 35% 0 mm 990 W/m2
12:34 25.6 °C 9.2 °C 1023.6 hPa NE 2.1 km/h 9.7 km/h 35.5% 0 mm 990 W/m2
12:39 25.7 °C 9.3 °C 1023.2 hPa NE 2.3 km/h 11.3 km/h 35.5% 0 mm 993 W/m2
12:44 25.7 °C 8.8 °C 1023.2 hPa ENE 1.9 km/h 11.3 km/h 34.2% 0 mm 997 W/m2
12:49 25.7 °C 9.1 °C 1023.2 hPa NE 1.4 km/h 11.3 km/h 34.9% 0 mm 998 W/m2
12:54 25.6 °C 9.2 °C 1023.2 hPa East 1.9 km/h 11.3 km/h 35.5% 0 mm 995 W/m2
12:59 25.7 °C 9.7 °C 1023.2 hPa East 0.5 km/h 11.3 km/h 36.5% 0 mm 993 W/m2
13:04 25.7 °C 8.8 °C 1023.2 hPa Calm   11.3 km/h 34.6% 0 mm 997 W/m2
13:09 25.5 °C 7.9 °C 1023.2 hPa Calm   1.6 km/h 32.5% 0 mm 993 W/m2
13:14 25.2 °C 8.2 °C 1023.2 hPa East 0.2 km/h 1.6 km/h 33.9% 0 mm 993 W/m2
13:19 25.2 °C 9.5 °C 1023.2 hPa East 0.8 km/h 4.8 km/h 37% 0 mm 995 W/m2
13:24 25.5 °C 9.5 °C 1023.2 hPa NE 1.1 km/h 8 km/h 36.4% 0 mm 995 W/m2
13:29 25.7 °C 9.2 °C 1023.2 hPa North 2.9 km/h 8 km/h 35.3% 0 mm 1002 W/m2
13:34 25.7 °C 8.7 °C 1023.2 hPa North 1.6 km/h 8 km/h 34.2% 0 mm 1004 W/m2
13:39 25.8 °C 7.8 °C 1022.9 hPa NNW 0.3 km/h 6.4 km/h 32% 0 mm 1025 W/m2
13:44 25.8 °C 8.9 °C 1022.9 hPa NW 2.6 km/h 14.5 km/h 34.2% 0 mm 1039 W/m2
13:49 26 °C 8.7 °C 1022.9 hPa WNW 2.3 km/h 14.5 km/h 33.5% 0 mm 1069 W/m2
13:54 26.2 °C 9.7 °C 1022.9 hPa WNW 0.8 km/h 14.5 km/h 35.4% 0 mm 1130 W/m2
13:59 26.4 °C 8.3 °C 1022.9 hPa WNW 1.6 km/h 14.5 km/h 31.7% 0 mm 1136 W/m2
14:04 26.3 °C 7.8 °C 1022.9 hPa NW 0.5 km/h 14.5 km/h 30.9% 0 mm 944 W/m2
14:09 26 °C 7.2 °C 1022.9 hPa NW 0.2 km/h 3.2 km/h 30.1% 0 mm 752 W/m2
14:14 25.8 °C 8.1 °C 1022.9 hPa Calm   3.2 km/h 32.6% 0 mm 589 W/m2
14:19 25.7 °C 8.7 °C 1022.9 hPa Calm   3.2 km/h 34.1% 0 mm 392 W/m2
14:24 25.7 °C 9.2 °C 1022.9 hPa NW 0.3 km/h 4.8 km/h 35.3% 0 mm 378 W/m2
14:29 25.6 °C 8.9 °C 1022.9 hPa NW 1.6 km/h 8 km/h 34.7% 0 mm 339 W/m2
14:34 25.4 °C 9.4 °C 1022.9 hPa NW 0.2 km/h 8 km/h 36.3% 0 mm 327 W/m2
14:39 25.2 °C 9.2 °C 1022.9 hPa NW 1 km/h 6.4 km/h 36.1% 0 mm 264 W/m2
14:44 24.9 °C 8.7 °C 1022.9 hPa WNW 2.7 km/h 9.7 km/h 35.7% 0 mm 209 W/m2
14:49 24.7 °C 8.9 °C 1022.6 hPa WNW 1.6 km/h 9.7 km/h 36.8% 0 mm 202 W/m2
14:54 24.4 °C 8.9 °C 1022.6 hPa Calm   9.7 km/h 37.2% 0 mm 181 W/m2
14:59 24.3 °C 9.1 °C 1022.6 hPa Calm   9.7 km/h 38.1% 0 mm 162 W/m2
15:04 24.2 °C 9.5 °C 1022.6 hPa Calm   9.7 km/h 39.3% 0 mm 179 W/m2
15:09 24.1 °C 10 °C 1022.2 hPa Calm     41% 0 mm 188 W/m2
15:14 24 °C 10.8 °C 1022.2 hPa Calm     43.6% 0 mm 193 W/m2
15:19 23.9 °C 10.7 °C 1022.2 hPa Calm     43.4% 0 mm 190 W/m2
15:24 23.8 °C 10.2 °C 1022.2 hPa Calm   1.6 km/h 42.1% 0 mm 223 W/m2
15:29 23.8 °C 10.1 °C 1022.2 hPa WNW 0.3 km/h 6.4 km/h 42% 0 mm 294 W/m2
15:34 23.7 °C 10.2 °C 1022.2 hPa WNW 0.3 km/h 6.4 km/h 42.6% 0 mm 283 W/m2
15:39 23.6 °C 10 °C 1022.2 hPa WNW 0.2 km/h 6.4 km/h 42.1% 0 mm 241 W/m2
15:44 23.5 °C 9.7 °C 1022.2 hPa WNW 0.8 km/h 6.4 km/h 41.6% 0 mm 148 W/m2
15:49 23.4 °C 9.7 °C 1022.2 hPa Calm   6.4 km/h 41.9% 0 mm 130 W/m2
15:54 23.3 °C 9.9 °C 1022.2 hPa WNW 2.6 km/h 16.1 km/h 42.5% 0 mm 132 W/m2
15:59 23.2 °C 10 °C 1022.2 hPa WNW 0.8 km/h 16.1 km/h 43.2% 0 mm 156 W/m2
16:09 22.9 °C 10.3 °C 1022.2 hPa West 0.3 km/h 3.2 km/h 44.7% 0 mm 195 W/m2
16:14 22.9 °C 10.8 °C 1022.2 hPa West 0.6 km/h 4.8 km/h 46.2% 0 mm 204 W/m2
16:19 22.9 °C 10.7 °C 1022.2 hPa West 1.9 km/h 6.4 km/h 45.9% 0 mm 204 W/m2
16:24 22.9 °C 10.8 °C 1022.2 hPa West 0.6 km/h 6.4 km/h 46.4% 0 mm 199 W/m2
16:29 23 °C 11.4 °C 1022.2 hPa West 0.2 km/h 6.4 km/h 48% 0 mm 190 W/m2
16:34 23.1 °C 11.1 °C 1022.2 hPa Calm   6.4 km/h 46.7% 0 mm 190 W/m2
16:39 23.3 °C 10.7 °C 1022.2 hPa Calm   1.6 km/h 45% 0 mm 176 W/m2
16:44 23.4 °C 11.2 °C 1022.2 hPa Calm   1.6 km/h 45.9% 0 mm 156 W/m2
16:49 23.6 °C 10.9 °C 1022.2 hPa Calm   1.6 km/h 45% 0 mm 144 W/m2
16:54 23.6 °C 10.7 °C 1022.2 hPa Calm   1.6 km/h 44% 0 mm 135 W/m2
16:59 23.7 °C 10.4 °C 1022.2 hPa Calm   1.6 km/h 43% 0 mm 132 W/m2
17:04 23.7 °C 9.7 °C 1022.2 hPa Calm   4.8 km/h 41.1% 0 mm 146 W/m2
17:09 23.7 °C 9.7 °C 1022.2 hPa West 0.5 km/h 4.8 km/h 41.1% 0 mm 153 W/m2
17:14 23.7 °C 9.7 °C 1022.2 hPa Calm   4.8 km/h 41% 0 mm 142 W/m2
17:19 23.7 °C 10.5 °C 1022.2 hPa West 0.2 km/h 4.8 km/h 43.2% 0 mm 102 W/m2
17:24 23.7 °C 10.3 °C 1022.2 hPa West 1 km/h 6.4 km/h 42.7% 0 mm 74 W/m2
17:29 23.5 °C 10.1 °C 1022.2 hPa West 0.2 km/h 6.4 km/h 42.5% 0 mm 67 W/m2
17:34 23.3 °C 10.4 °C 1022.2 hPa West 0.6 km/h 6.4 km/h 44% 0 mm 74 W/m2
17:39 23.1 °C 10.3 °C 1022.2 hPa WSW 1.9 km/h 9.7 km/h 44.3% 0 mm 79 W/m2
17:44 22.7 °C 10.2 °C 1022.2 hPa SW 0.6 km/h 9.7 km/h 45.1% 0 mm 79 W/m2
17:49 22.4 °C 9.9 °C 1022.2 hPa West 0.5 km/h 9.7 km/h 44.9% 0 mm 81 W/m2
17:54 22.2 °C 9.8 °C 1022.2 hPa WSW 1.3 km/h 11.3 km/h 45.1% 0 mm 74 W/m2
17:59 21.9 °C 9.6 °C 1022.2 hPa WSW 3.2 km/h 14.5 km/h 45.4% 0 mm 65 W/m2
18:04 21.7 °C 9.4 °C 1022.2 hPa WSW 0.5 km/h 14.5 km/h 45.4% 0 mm 69 W/m2
18:09 21.6 °C 9.7 °C 1022.2 hPa Calm   8 km/h 46.7% 0 mm 84 W/m2
18:14 21.4 °C 10.2 °C 1022.2 hPa WSW 0.2 km/h 8 km/h 48.9% 0 mm 86 W/m2
18:19 21.3 °C 10.4 °C 1022.2 hPa WSW 0.5 km/h 8 km/h 50% 0 mm 86 W/m2
18:24 21.2 °C 10.3 °C 1022.2 hPa WSW 2.7 km/h 11.3 km/h 49.8% 0 mm 72 W/m2
18:29 21.2 °C 10.4 °C 1022.2 hPa WSW 0.2 km/h 11.3 km/h 50.1% 0 mm 74 W/m2
18:34 21.2 °C 10.3 °C 1022.2 hPa WSW 0.8 km/h 11.3 km/h 49.9% 0 mm 70 W/m2
18:39 21.2 °C 9.7 °C 1022.6 hPa WSW 1.6 km/h 11.3 km/h 47.8% 0 mm 65 W/m2
18:44 21.2 °C 9.7 °C 1022.6 hPa WSW 0.5 km/h 11.3 km/h 47.6% 0 mm 72 W/m2
18:49 21.3 °C 9.7 °C 1022.6 hPa Calm   11.3 km/h 47.5% 0 mm 72 W/m2
18:54 21.3 °C 9.4 °C 1022.6 hPa WSW 0.2 km/h 11.3 km/h 46.7% 0 mm 70 W/m2
18:59 21.2 °C 9.3 °C 1022.6 hPa WSW 0.3 km/h 11.3 km/h 46.5% 0 mm 51 W/m2
19:04 21.2 °C 9.4 °C 1022.6 hPa WSW 1 km/h 11.3 km/h 47% 0 mm 53 W/m2
19:09 21.1 °C 9.6 °C 1022.6 hPa Calm   11.3 km/h 47.8% 0 mm 58 W/m2
19:14 21 °C 9.7 °C 1022.9 hPa Calm   11.3 km/h 48.5% 0 mm 58 W/m2
19:19 20.9 °C 9.6 °C 1022.9 hPa Calm   11.3 km/h 48.2% 0 mm 44 W/m2
19:24 20.8 °C 9.7 °C 1022.9 hPa Calm   11.3 km/h 48.6% 0 mm 26 W/m2
19:29 20.8 °C 9.6 °C 1022.9 hPa Calm   11.3 km/h 48.6% 0 mm 32 W/m2
19:34 20.7 °C 9.7 °C 1022.9 hPa Calm   11.3 km/h 49.4% 0 mm 40 W/m2
19:39 20.7 °C 10.7 °C 1022.9 hPa Calm     52.9% 0 mm 40 W/m2
19:44 20.6 °C 11.5 °C 1022.9 hPa WSW 0.2 km/h 3.2 km/h 56.1% 0 mm 39 W/m2
19:49 20.3 °C 11.8 °C 1022.9 hPa Calm   3.2 km/h 58.2% 0 mm 19 W/m2
19:54 20.1 °C 12.1 °C 1023.2 hPa Calm   3.2 km/h 60.2% 0 mm 12 W/m2
19:59 19.8 °C 12.3 °C 1023.2 hPa Calm   3.2 km/h 61.8% 0 mm 11 W/m2
20:04 19.3 °C 11.6 °C 1023.2 hPa Calm     61% 0 mm 0 W/m2
20:09 19.2 °C 11.1 °C 1023.6 hPa Calm     59.5% 0 mm 0 W/m2
20:14 18.9 °C 11.1 °C 1023.6 hPa Calm     60% 0 mm 0 W/m2
20:19 18.8 °C 11.3 °C 1023.6 hPa Calm     61.7% 0 mm 0 W/m2
20:24 18.7 °C 10.9 °C 1023.2 hPa Calm     60.5% 0 mm 0 W/m2
20:29 18.7 °C 10.9 °C 1023.2 hPa Calm     60.5% 0 mm 0 W/m2
20:34 18.6 °C 10.4 °C 1023.6 hPa Calm     59.2% 0 mm 0 W/m2
20:39 18.4 °C 10.3 °C 1023.6 hPa Calm     58.9% 0 mm 0 W/m2
20:44 18.4 °C 10.7 °C 1023.6 hPa Calm     60.6% 0 mm 0 W/m2
20:49 18.3 °C 10.7 °C 1023.6 hPa Calm     61.1% 0 mm 0 W/m2
20:54 18.3 °C 10.7 °C 1023.6 hPa Calm     61.2% 0 mm 0 W/m2
20:59 18.2 °C 11 °C 1023.6 hPa Calm     62.8% 0 mm 0 W/m2
21:04 18.1 °C 11.2 °C 1023.6 hPa Calm     64% 0 mm 0 W/m2
21:09 17.9 °C 11.1 °C 1023.6 hPa Calm     64% 0 mm 0 W/m2
21:14 17.8 °C 10.9 °C 1023.6 hPa Calm     64.1% 0 mm 0 W/m2
21:19 17.7 °C 11.3 °C 1023.9 hPa Calm     66.3% 0 mm 0 W/m2
21:24 17.5 °C 11.3 °C 1023.9 hPa Calm     67% 0 mm 0 W/m2
21:29 17.3 °C 11.1 °C 1023.9 hPa Calm     66.7% 0 mm 0 W/m2
21:34 17.2 °C 10.9 °C 1023.9 hPa Calm     66.7% 0 mm 0 W/m2
21:39 17.1 °C 10.9 °C 1023.9 hPa Calm     67% 0 mm 0 W/m2
21:44 16.9 °C 10.8 °C 1023.9 hPa Calm     67.2% 0 mm 0 W/m2
21:49 16.8 °C 10.8 °C 1023.9 hPa Calm     68% 0 mm 0 W/m2
21:54 16.6 °C 10.7 °C 1023.9 hPa Calm     67.8% 0 mm 0 W/m2
21:59 16.5 °C 10.2 °C 1023.9 hPa Calm     66.5% 0 mm 0 W/m2
22:04 16.4 °C 10.2 °C 1023.9 hPa Calm     66.9% 0 mm 0 W/m2
22:09 16.3 °C 10.2 °C 1023.9 hPa Calm     66.9% 0 mm 0 W/m2
22:14 16.3 °C 10.1 °C 1023.9 hPa Calm     66.8% 0 mm 0 W/m2
22:19 16.2 °C 10.4 °C 1023.9 hPa Calm     68.6% 0 mm 0 W/m2
22:24 16.1 °C 10.4 °C 1023.9 hPa Calm     69% 0 mm 0 W/m2
22:29 15.9 °C 10.4 °C 1023.9 hPa Calm     69.7% 0 mm 0 W/m2
22:34 15.8 °C 10.3 °C 1023.9 hPa Calm     70% 0 mm 0 W/m2
22:39 15.6 °C 10.3 °C 1023.9 hPa Calm     70.5% 0 mm 0 W/m2
22:44 15.5 °C 10.3 °C 1023.9 hPa Calm     71% 0 mm 0 W/m2
22:49 15.4 °C 10.2 °C 1023.9 hPa Calm     71% 0 mm 0 W/m2
22:54 15.3 °C 10.2 °C 1023.9 hPa Calm     71.6% 0 mm 0 W/m2
22:59 15.2 °C 10.2 °C 1023.9 hPa Calm     72% 0 mm 0 W/m2
23:04 15.2 °C 10.2 °C 1023.9 hPa Calm     72.2% 0 mm 0 W/m2
23:09 15.2 °C 10.4 °C 1023.9 hPa Calm     73.2% 0 mm 0 W/m2
23:14 15.1 °C 10.4 °C 1023.9 hPa Calm     74% 0 mm 0 W/m2
23:19 14.9 °C 10.3 °C 1023.9 hPa Calm     74% 0 mm 0 W/m2
23:24 14.7 °C 10.1 °C 1023.9 hPa Calm     74% 0 mm 0 W/m2
23:29 14.5 °C 10.1 °C 1023.9 hPa Calm     74.5% 0 mm 0 W/m2
23:34 14.4 °C 10.1 °C 1023.9 hPa Calm     75% 0 mm 0 W/m2
23:39 14.3 °C 9.9 °C 1023.9 hPa Calm     75% 0 mm 0 W/m2
23:44 14.3 °C 9.9 °C 1023.9 hPa Calm     75% 0 mm 0 W/m2
23:49 14.2 °C 9.8 °C 1023.9 hPa Calm     75% 0 mm 0 W/m2
23:54 14.2 °C 9.8 °C 1023.9 hPa Calm     75% 0 mm 0 W/m2
23:59 14.1 °C 9.9 °C 1023.9 hPa Calm     75.7% 0 mm 0 W/m2
Hartford County Weather
Compliments of Weather Underground - 2 mb